createdAt,value
2023-04-16T00:02:07.681Z,105.53
2023-04-16T00:04:34.619Z,102.68
2023-04-16T00:07:01.322Z,108.65
2023-04-16T00:09:28.235Z,102.15
2023-04-16T00:11:54.952Z,101.15
2023-04-16T00:14:21.775Z,107.95
2023-04-16T00:16:48.452Z,91.55
2023-04-16T00:19:15.473Z,104.18
2023-04-16T00:21:42.229Z,106.45
2023-04-16T00:24:09.150Z,99.53
2023-04-16T00:26:35.786Z,96.30
2023-04-16T00:29:02.558Z,93.50
2023-04-16T00:31:30.617Z,97.72
2023-04-16T00:33:58.277Z,101.50
2023-04-16T00:36:27.040Z,89.28
2023-04-16T00:38:57.363Z,106.40
2023-04-16T00:41:24.061Z,114.43
2023-04-16T00:43:51.537Z,98.55
2023-04-16T00:46:19.702Z,103.75
2023-04-16T00:48:46.498Z,93.25
2023-04-16T00:51:13.154Z,102.53
2023-04-16T00:53:40.003Z,100.22
2023-04-16T00:56:07.467Z,89.07
2023-04-16T00:58:35.051Z,85.82
2023-04-16T01:01:01.816Z,96.57
2023-04-16T01:03:44.698Z,88.65
2023-04-16T01:06:11.769Z,96.05
2023-04-16T01:08:38.700Z,85.35
2023-04-16T01:11:05.756Z,93.78
2023-04-16T01:13:33.580Z,78.47
2023-04-16T01:16:01.265Z,77.50
2023-04-16T01:18:27.962Z,93.78
2023-04-16T01:20:54.575Z,81.53
2023-04-16T01:23:21.489Z,94.78
2023-04-16T01:25:48.258Z,86.78
2023-04-16T01:28:14.949Z,95.40
2023-04-16T01:30:41.735Z,92.97
2023-04-16T01:33:25.024Z,89.53
2023-04-16T01:35:52.169Z,85.60
2023-04-16T01:38:18.798Z,93.78
2023-04-16T01:40:45.633Z,95.47
2023-04-16T01:43:12.244Z,96.10
2023-04-16T01:45:39.079Z,94.82
2023-04-16T01:48:06.008Z,100.55
2023-04-16T01:50:33.538Z,95.28
2023-04-16T01:53:01.984Z,104.10
2023-04-16T01:55:28.606Z,89.05
2023-04-16T01:57:55.561Z,98.18
2023-04-16T02:00:25.568Z,91.50
2023-04-16T02:02:53.523Z,95.65
2023-04-16T02:05:26.267Z,92.32
2023-04-16T02:07:52.880Z,80.20
2023-04-16T02:10:19.493Z,95.25
2023-04-16T02:12:47.634Z,92.65
2023-04-16T02:15:15.870Z,92.18
2023-04-16T02:17:42.820Z,98.22
2023-04-16T02:20:11.247Z,82.07
2023-04-16T02:22:43.836Z,101.82
2023-04-16T02:25:14.304Z,94.78
2023-04-16T02:27:42.271Z,86.18
2023-04-16T02:30:22.775Z,90.90
2023-04-16T02:32:49.773Z,90.60
2023-04-16T02:35:17.388Z,91.43
2023-04-16T02:37:45.426Z,92.25
2023-04-16T02:40:12.105Z,91.97
2023-04-16T02:42:38.823Z,96.45
2023-04-16T02:45:06.389Z,86.57
2023-04-16T02:47:34.142Z,97.68
2023-04-16T02:50:00.850Z,98.75
2023-04-16T02:52:27.470Z,93.60
2023-04-16T02:54:54.154Z,85.80
2023-04-16T02:57:20.978Z,101.28
2023-04-16T02:59:47.597Z,83.97
2023-04-16T03:02:14.812Z,90.07
2023-04-16T03:04:41.710Z,80.72
2023-04-16T03:07:09.308Z,80.18
2023-04-16T03:09:35.858Z,98.50
2023-04-16T03:12:02.514Z,80.57
2023-04-16T03:14:29.280Z,83.03
2023-04-16T03:16:56.011Z,82.10
2023-04-16T03:19:22.898Z,79.50
2023-04-16T03:21:49.547Z,87.32
2023-04-16T03:24:17.905Z,95.13
2023-04-16T03:26:46.973Z,82.05
2023-04-16T03:29:13.601Z,97.70
2023-04-16T03:31:41.454Z,88.35
2023-04-16T03:34:08.185Z,81.68
2023-04-16T03:36:35.423Z,83.47
2023-04-16T03:39:02.049Z,97.65
2023-04-16T03:41:28.938Z,90.78
2023-04-16T03:43:55.797Z,96.75
2023-04-16T03:46:22.905Z,89.18
2023-04-16T03:48:49.545Z,92.97
2023-04-16T03:51:16.383Z,88.40
2023-04-16T03:53:43.054Z,95.00
2023-04-16T03:56:09.967Z,89.07
2023-04-16T03:58:36.946Z,83.30
2023-04-16T04:01:03.642Z,94.03
2023-04-16T04:03:30.897Z,91.70
2023-04-16T04:05:57.754Z,107.82
2023-04-16T04:08:28.465Z,106.43
2023-04-16T04:10:55.159Z,82.55
2023-04-16T04:13:23.288Z,74.55
2023-04-16T04:15:51.284Z,83.07
2023-04-16T04:18:17.952Z,81.93
2023-04-16T04:20:44.899Z,89.90
2023-04-16T04:23:14.909Z,93.72
2023-04-16T04:25:41.605Z,77.13
2023-04-16T04:28:08.456Z,100.68
2023-04-16T04:30:36.040Z,96.53
2023-04-16T04:33:02.735Z,102.55
2023-04-16T04:35:29.639Z,87.38
2023-04-16T04:37:57.795Z,84.35
2023-04-16T04:40:24.527Z,88.15
2023-04-16T04:42:52.610Z,80.50
2023-04-16T04:45:25.397Z,84.20
2023-04-16T04:47:53.529Z,79.97
2023-04-16T04:50:21.038Z,90.20
2023-04-16T04:52:47.786Z,90.43
2023-04-16T04:55:16.001Z,87.40
2023-04-16T04:57:42.744Z,87.28
2023-04-16T05:00:10.399Z,80.25
2023-04-16T05:02:47.385Z,84.88
2023-04-16T05:05:14.225Z,75.88
2023-04-16T05:07:40.987Z,79.57
2023-04-16T05:10:08.415Z,83.55
2023-04-16T05:12:35.103Z,82.72
2023-04-16T05:15:01.742Z,82.47
2023-04-16T05:17:28.435Z,80.38
2023-04-16T05:19:55.174Z,90.75
2023-04-16T05:22:21.794Z,74.38
2023-04-16T05:24:48.526Z,81.65
2023-04-16T05:27:15.813Z,73.07
2023-04-16T05:29:42.386Z,84.18
2023-04-16T05:32:09.116Z,83.75
2023-04-16T05:34:35.733Z,81.93
2023-04-16T05:37:02.385Z,67.38
2023-04-16T05:39:29.025Z,73.10
2023-04-16T05:41:55.746Z,70.38
2023-04-16T05:44:22.352Z,71.53
2023-04-16T05:46:49.013Z,70.18
2023-04-16T05:49:18.662Z,73.20
2023-04-16T05:51:45.638Z,75.18
2023-04-16T05:54:12.319Z,71.65
2023-04-16T05:56:38.946Z,74.22
2023-04-16T05:59:05.709Z,61.38
2023-04-16T06:01:35.270Z,74.40
2023-04-16T06:04:02.411Z,78.80
2023-04-16T06:06:29.283Z,68.95
2023-04-16T06:08:55.996Z,63.72
2023-04-16T06:11:22.677Z,59.80
2023-04-16T06:13:49.339Z,71.47
2023-04-16T06:16:16.099Z,72.25
2023-04-16T06:18:42.746Z,65.70
2023-04-16T06:21:09.377Z,61.22
2023-04-16T06:23:36.009Z,58.28
2023-04-16T06:26:02.600Z,58.65
2023-04-16T06:28:29.268Z,69.15
2023-04-16T06:30:55.962Z,62.28
2023-04-16T06:33:22.987Z,56.35
2023-04-16T06:35:49.684Z,64.25
2023-04-16T06:38:16.316Z,63.80
2023-04-16T06:40:42.933Z,57.85
2023-04-16T06:43:09.548Z,69.25
2023-04-16T06:45:36.381Z,67.20
2023-04-16T06:48:03.903Z,62.85
2023-04-16T06:50:31.028Z,54.78
2023-04-16T06:52:57.703Z,53.22
2023-04-16T06:55:24.373Z,63.63
2023-04-16T06:57:51.108Z,62.30
2023-04-16T07:00:17.947Z,56.25
2023-04-16T07:02:44.747Z,63.85
2023-04-16T07:05:11.788Z,57.95
2023-04-16T07:07:38.414Z,66.03
2023-04-16T07:10:05.832Z,64.15
2023-04-16T07:12:33.099Z,62.42
2023-04-16T07:14:59.783Z,59.85
2023-04-16T07:17:26.441Z,56.17
2023-04-16T07:19:53.182Z,61.67
2023-04-16T07:22:20.423Z,67.05
2023-04-16T07:24:47.000Z,58.03
2023-04-16T07:27:13.651Z,56.90
2023-04-16T07:29:40.921Z,54.47
2023-04-16T07:32:07.807Z,58.38
2023-04-16T07:34:34.478Z,56.88
2023-04-16T07:37:01.110Z,58.55
2023-04-16T07:39:27.787Z,51.15
2023-04-16T07:41:54.412Z,51.22
2023-04-16T07:44:21.282Z,53.17
2023-04-16T07:46:47.990Z,53.03
2023-04-16T07:49:14.783Z,56.33
2023-04-16T07:51:41.393Z,50.90
2023-04-16T07:54:08.112Z,47.42
2023-04-16T07:56:34.812Z,55.05
2023-04-16T07:59:14.387Z,53.08
2023-04-16T08:01:48.064Z,48.05
2023-04-16T08:04:17.129Z,51.72
2023-04-16T08:06:44.127Z,51.75
2023-04-16T08:09:11.311Z,51.17
2023-04-16T08:11:38.124Z,49.55
2023-04-16T08:14:04.806Z,47.05
2023-04-16T08:16:32.505Z,48.25
2023-04-16T08:19:01.044Z,43.63
2023-04-16T08:21:28.135Z,46.35
2023-04-16T08:23:54.726Z,44.65
2023-04-16T08:26:21.350Z,45.67
2023-04-16T08:28:47.972Z,45.78
2023-04-16T08:31:14.654Z,50.17
2023-04-16T08:33:41.387Z,47.65
2023-04-16T08:36:08.137Z,45.60
2023-04-16T08:38:34.759Z,44.45
2023-04-16T08:41:03.893Z,43.30
2023-04-16T08:43:33.844Z,42.08
2023-04-16T08:46:01.204Z,41.60
2023-04-16T08:48:33.311Z,46.55
2023-04-16T08:51:01.108Z,41.92
2023-04-16T08:53:33.259Z,41.28
2023-04-16T08:56:02.666Z,40.05
2023-04-16T08:58:30.659Z,40.65
2023-04-16T09:00:57.381Z,34.53
2023-04-16T09:03:24.388Z,39.03
2023-04-16T09:05:51.774Z,41.67
2023-04-16T09:08:18.618Z,44.15
2023-04-16T09:10:45.478Z,45.38
2023-04-16T09:13:13.464Z,42.40
2023-04-16T09:15:41.247Z,43.53
2023-04-16T09:18:08.695Z,38.40
2023-04-16T09:20:35.345Z,42.78
2023-04-16T09:23:01.953Z,41.08
2023-04-16T09:25:33.585Z,42.95
2023-04-16T09:28:00.752Z,44.10
2023-04-16T09:30:27.865Z,39.92
2023-04-16T09:33:16.512Z,38.22
2023-04-16T09:35:50.417Z,32.50
2023-04-16T09:38:17.488Z,34.45
2023-04-16T09:40:44.198Z,38.80
2023-04-16T09:43:15.509Z,31.60
2023-04-16T09:45:53.954Z,37.13
2023-04-16T09:48:30.996Z,36.38
2023-04-16T09:51:01.295Z,34.45
2023-04-16T09:53:31.633Z,32.90
2023-04-16T09:55:59.580Z,34.63
2023-04-16T09:58:26.549Z,37.92
2023-04-16T10:01:12.624Z,30.95
2023-04-16T10:03:41.111Z,31.90
2023-04-16T10:06:13.772Z,29.70
2023-04-16T10:08:49.598Z,32.83
2023-04-16T10:11:17.436Z,31.35
2023-04-16T10:13:44.075Z,35.70
2023-04-16T10:16:11.423Z,36.67
2023-04-16T10:18:40.561Z,37.78
2023-04-16T10:21:08.013Z,34.25
2023-04-16T10:23:34.717Z,30.77
2023-04-16T10:26:02.212Z,27.17
2023-04-16T10:28:29.563Z,32.00
2023-04-16T10:30:57.375Z,28.40
2023-04-16T10:33:27.217Z,25.30
2023-04-16T10:36:08.791Z,31.88
2023-04-16T10:38:38.827Z,27.08
2023-04-16T10:41:06.428Z,27.27
2023-04-16T10:43:47.916Z,28.40
2023-04-16T10:46:31.820Z,29.63
2023-04-16T21:31:31.822Z,30.75
2023-04-16T21:34:37.559Z,29.35
2023-04-16T21:37:04.405Z,29.30
2023-04-16T21:39:31.132Z,34.10
2023-04-16T21:41:58.024Z,32.55
2023-04-16T21:44:24.650Z,36.20
2023-04-16T21:46:51.582Z,39.13
2023-04-16T21:49:18.754Z,30.08
2023-04-16T21:51:46.206Z,31.08
2023-04-16T21:54:12.959Z,33.95
2023-04-16T21:56:39.560Z,32.70
2023-04-16T21:59:06.370Z,28.38
2023-04-16T22:01:33.261Z,30.63
2023-04-16T22:04:02.099Z,29.40
2023-04-16T22:06:28.759Z,28.15
2023-04-16T22:08:58.826Z,30.15
2023-04-16T22:11:25.450Z,29.73
2023-04-16T22:13:52.026Z,31.83
2023-04-16T22:16:18.644Z,29.98
2023-04-16T22:18:46.345Z,34.15
2023-04-16T22:21:12.997Z,33.20
2023-04-16T22:23:39.587Z,37.15
2023-04-16T22:26:06.345Z,36.95
2023-04-16T22:28:32.914Z,29.85
2023-04-16T22:30:59.570Z,34.25
2023-04-16T22:33:29.062Z,34.97
2023-04-16T22:35:55.965Z,35.15
2023-04-16T22:38:22.614Z,35.72
2023-04-16T22:40:49.238Z,35.60
2023-04-16T22:43:17.545Z,39.47
2023-04-16T22:45:46.385Z,39.60
2023-04-16T22:48:13.205Z,35.58
2023-04-16T22:50:40.703Z,40.30
2023-04-16T22:53:07.325Z,37.13
2023-04-16T22:55:34.022Z,39.22
2023-04-16T22:58:01.208Z,38.35
2023-04-16T23:00:28.409Z,41.60
2023-04-16T23:02:55.134Z,42.60
2023-04-16T23:05:21.779Z,48.40
2023-04-16T23:07:48.503Z,36.15
2023-04-16T23:10:15.109Z,41.17
2023-04-16T23:12:41.728Z,43.30
2023-04-16T23:15:08.820Z,42.88
2023-04-16T23:17:36.024Z,43.20
2023-04-16T23:20:05.284Z,41.08
2023-04-16T23:22:31.957Z,43.40
2023-04-16T23:24:58.587Z,48.42
2023-04-16T23:27:25.183Z,41.15
2023-04-16T23:29:51.786Z,44.15
2023-04-16T23:32:18.414Z,45.08
2023-04-16T23:34:45.471Z,43.85
2023-04-16T23:37:12.089Z,52.83
2023-04-16T23:39:38.852Z,47.75
2023-04-16T23:42:05.854Z,45.50
2023-04-16T23:44:32.828Z,49.15
2023-04-16T23:46:59.579Z,44.95
2023-04-16T23:49:26.350Z,47.42
2023-04-16T23:51:53.032Z,43.83
2023-04-16T23:54:19.859Z,43.42
2023-04-16T23:56:46.523Z,52.15
2023-04-16T23:59:13.564Z,54.53
